createdAt,value
2022-08-09T07:08:54.164Z,1025.82
2022-08-09T07:12:03.554Z,1025.78
2022-08-09T07:14:26.746Z,1025.80
2022-08-09T07:16:48.045Z,1025.87
2022-08-09T07:19:29.430Z,1025.83
2022-08-09T07:23:20.588Z,1025.88
2022-08-09T07:25:10.993Z,1025.88
2022-08-09T07:27:42.666Z,1025.91
2022-08-09T07:29:50.853Z,1025.92
2022-08-09T07:32:02.944Z,1025.89
2022-08-09T07:34:31.085Z,1025.86
2022-08-09T07:36:43.155Z,1025.91
2022-08-09T07:39:00.937Z,1025.87
2022-08-09T07:41:11.795Z,1025.86
2022-08-09T07:43:19.488Z,1025.88
2022-08-09T07:45:45.606Z,1025.82
2022-08-09T07:48:01.378Z,1025.85
2022-08-09T07:50:13.269Z,1025.83
2022-08-09T07:52:35.863Z,1025.80
2022-08-09T07:54:54.345Z,1025.87
2022-08-09T07:58:32.065Z,1025.85
2022-08-09T08:02:00.915Z,1025.88
2022-08-09T08:04:12.940Z,1025.91
2022-08-09T08:06:31.832Z,1025.90
2022-08-09T08:09:34.310Z,1025.85
2022-08-09T08:10:14.081Z,1025.92
2022-08-09T08:12:52.288Z,1025.92
2022-08-09T08:16:51.097Z,1025.87
2022-08-09T08:18:58.377Z,1025.91
2022-08-09T08:21:08.833Z,1025.82
2022-08-09T08:23:21.493Z,1025.87
2022-08-09T08:26:54.647Z,1025.83
2022-08-09T08:27:43.019Z,1025.79
2022-08-09T08:31:15.015Z,1025.80
2022-08-09T08:33:24.720Z,1025.83
2022-08-09T08:35:37.106Z,1025.86
2022-08-09T08:36:37.084Z,1025.88
2022-08-09T08:39:14.151Z,1025.80
2022-08-09T08:41:41.893Z,1025.80
2022-08-09T08:42:32.127Z,1025.81
2022-08-09T08:44:40.824Z,1025.86
2022-08-09T08:47:25.595Z,1025.84
2022-08-09T08:49:48.375Z,1025.82
2022-08-09T08:54:04.301Z,1025.85
2022-08-09T08:56:25.112Z,1025.82
2022-08-09T08:57:14.179Z,1025.82
2022-08-09T08:59:28.133Z,1025.87
2022-08-09T09:00:29.856Z,1025.84
2022-08-09T09:02:37.696Z,1025.83
2022-08-09T09:04:54.230Z,1025.81
2022-08-09T09:07:09.801Z,1025.83
2022-08-09T09:09:58.354Z,1025.89
2022-08-09T09:10:25.341Z,1025.85
2022-08-09T09:12:36.654Z,1025.86
2022-08-09T09:14:50.056Z,1025.86
2022-08-09T09:17:05.981Z,1025.82
2022-08-09T09:20:21.541Z,1025.80
2022-08-09T09:22:32.859Z,1025.87
2022-08-09T09:24:44.868Z,1025.80
2022-08-09T09:26:56.947Z,1025.83
2022-08-09T09:29:10.993Z,1025.78
2022-08-09T09:32:06.956Z,1025.80
2022-08-09T09:32:34.252Z,1025.80
2022-08-09T09:33:23.782Z,1025.76
2022-08-09T09:35:36.170Z,1025.73
2022-08-09T09:37:53.354Z,1025.67
2022-08-09T09:40:07.014Z,1025.69
2022-08-09T09:43:41.245Z,1025.69
2022-08-09T09:44:37.300Z,1025.71
2022-08-09T09:50:49.216Z,1025.67
2022-08-09T09:51:41.806Z,1025.63
2022-08-09T09:56:04.459Z,1025.67
2022-08-09T09:56:53.191Z,1025.67
2022-08-09T09:58:02.502Z,1025.67
2022-08-09T09:58:51.658Z,1025.69
2022-08-09T10:02:40.372Z,1025.68
2022-08-09T10:06:03.449Z,1025.61
2022-08-09T10:08:27.429Z,1025.54
2022-08-09T10:09:21.518Z,1025.54
2022-08-09T10:12:01.143Z,1025.57
2022-08-09T10:12:27.969Z,1025.56
2022-08-09T10:16:09.674Z,1025.53
2022-08-09T10:16:56.587Z,1025.53
2022-08-09T10:21:13.438Z,1025.52
2022-08-09T10:26:06.954Z,1025.48
2022-08-09T10:26:47.084Z,1025.44
2022-08-09T10:37:51.688Z,1025.41
2022-08-09T10:40:08.938Z,1025.39
2022-08-09T10:42:32.225Z,1025.35
2022-08-09T10:45:58.482Z,1025.36
2022-08-09T10:49:55.733Z,1025.34
2022-08-09T10:53:10.382Z,1025.33
2022-08-09T10:57:33.810Z,1025.32
2022-08-09T11:00:32.859Z,1025.36
2022-08-09T11:03:19.512Z,1025.36
2022-08-09T11:10:47.046Z,1025.36
2022-08-09T11:15:19.935Z,1025.32
2022-08-09T11:18:10.853Z,1025.31
2022-08-09T11:20:24.581Z,1025.28
2022-08-09T11:23:30.714Z,1025.22
2022-08-09T11:26:01.817Z,1025.19
2022-08-09T11:28:27.800Z,1025.16
2022-08-09T11:30:48.166Z,1025.18
2022-08-09T11:33:21.047Z,1025.21
2022-08-09T11:35:49.588Z,1025.21
2022-08-09T11:36:36.926Z,1025.20
2022-08-09T11:39:18.647Z,1025.21
2022-08-09T11:41:38.596Z,1025.18
2022-08-09T11:43:53.048Z,1025.19
2022-08-09T11:46:10.398Z,1025.19
2022-08-09T11:48:28.321Z,1025.20
2022-08-09T11:50:53.083Z,1025.23
2022-08-09T11:53:00.698Z,1025.18
2022-08-09T11:53:02.870Z,1025.16
2022-08-09T11:55:09.354Z,1025.16
2022-08-09T11:57:28.482Z,1025.13
2022-08-09T11:59:52.402Z,1025.06
2022-08-09T12:02:34.640Z,1025.14
2022-08-09T12:03:09.958Z,1025.14
2022-08-09T12:05:37.270Z,1025.06
2022-08-09T12:08:28.527Z,1025.01
2022-08-09T12:10:49.832Z,1024.98
2022-08-09T12:18:54.291Z,1025.09
2022-08-09T12:21:28.351Z,1025.07
2022-08-09T12:22:14.184Z,1024.97
2022-08-09T12:24:25.739Z,1025.03
2022-08-09T12:26:37.350Z,1025.08
2022-08-09T12:28:58.263Z,1025.10
2022-08-09T12:29:54.080Z,1025.10
2022-08-09T12:32:02.990Z,1025.05
2022-08-09T12:34:14.130Z,1025.03
2022-08-09T12:36:31.647Z,1025.00
2022-08-09T12:38:38.700Z,1024.92
2022-08-09T12:40:51.894Z,1024.99
2022-08-09T12:43:02.794Z,1024.98
2022-08-09T12:45:33.356Z,1024.96
2022-08-09T12:47:37.247Z,1024.95
2022-08-09T12:49:51.072Z,1024.92
2022-08-09T12:52:00.978Z,1024.90
2022-08-09T12:54:10.906Z,1024.85
2022-08-09T12:56:39.605Z,1024.81
2022-08-09T12:57:24.016Z,1024.85
2022-08-09T12:59:57.958Z,1024.84
2022-08-09T13:01:49.635Z,1024.83
2022-08-09T13:03:59.434Z,1024.83
2022-08-09T13:06:14.704Z,1024.82
2022-08-09T13:08:40.493Z,1024.78
2022-08-09T13:09:24.501Z,1024.79
2022-08-09T13:11:35.458Z,1024.75
2022-08-09T13:14:42.308Z,1024.77
2022-08-09T13:14:53.622Z,1024.77
2022-08-09T13:17:01.269Z,1024.77
2022-08-09T13:19:14.704Z,1024.75
2022-08-09T13:22:35.771Z,1024.74
2022-08-09T13:22:37.348Z,1024.69
2022-08-09T13:24:16.422Z,1024.71
2022-08-09T13:24:44.633Z,1024.68
2022-08-09T13:26:38.792Z,1024.68
2022-08-09T13:28:50.857Z,1024.65
2022-08-09T13:32:15.194Z,1024.65
2022-08-09T13:32:19.598Z,1024.68
2022-08-09T13:33:04.201Z,1024.62
2022-08-09T13:35:15.335Z,1024.64
2022-08-09T13:37:51.718Z,1024.59
2022-08-09T13:41:51.667Z,1024.60
2022-08-09T13:41:55.414Z,1024.64
2022-08-09T13:41:58.698Z,1024.61
2022-08-09T13:43:51.523Z,1024.62
2022-08-09T13:46:42.699Z,1024.66
2022-08-09T13:47:27.185Z,1024.68
2022-08-09T13:48:05.558Z,1024.65
2022-08-09T13:50:18.013Z,1024.61
2022-08-09T13:52:30.393Z,1024.62
2022-08-09T13:54:59.368Z,1024.59
2022-08-09T13:56:55.421Z,1024.56
2022-08-09T13:59:09.324Z,1024.51
2022-08-09T14:01:56.483Z,1024.49
2022-08-09T14:02:25.704Z,1024.46
2022-08-09T14:04:32.656Z,1024.50
2022-08-09T14:06:46.670Z,1024.51
2022-08-09T14:08:56.793Z,1024.52
2022-08-09T14:11:09.949Z,1024.50
2022-08-09T14:13:21.679Z,1024.48
2022-08-09T14:16:08.874Z,1024.45
2022-08-09T14:16:36.523Z,1024.46
2022-08-09T14:18:49.414Z,1024.40
2022-08-09T14:20:59.666Z,1024.47
2022-08-09T14:23:20.302Z,1024.52
2022-08-09T14:25:23.824Z,1024.50
2022-08-09T14:27:37.045Z,1024.48
2022-08-09T14:30:35.789Z,1024.51
2022-08-09T14:32:10.774Z,1024.54
2022-08-09T14:34:12.142Z,1024.52
2022-08-09T14:36:24.239Z,1024.54
2022-08-09T14:38:36.288Z,1024.50
2022-08-09T14:41:00.885Z,1024.50
2022-08-09T14:41:49.409Z,1024.56
2022-08-09T14:44:02.806Z,1024.55
2022-08-09T14:46:57.492Z,1024.51
2022-08-09T14:48:26.742Z,1024.55
2022-08-09T14:50:37.694Z,1024.52
2022-08-09T14:52:51.282Z,1024.52
2022-08-09T14:55:02.831Z,1024.54
2022-08-09T14:57:16.598Z,1024.48
2022-08-09T14:59:28.592Z,1024.51
2022-08-09T15:01:40.111Z,1024.50
2022-08-09T15:03:52.161Z,1024.52
2022-08-09T15:06:04.258Z,1024.57
2022-08-09T15:08:17.329Z,1024.53
2022-08-09T15:10:29.386Z,1024.53
2022-08-09T15:12:44.792Z,1024.53
2022-08-09T15:14:53.541Z,1024.52
2022-08-09T15:17:05.620Z,1024.55
2022-08-09T15:19:19.982Z,1024.51
2022-08-09T15:21:58.050Z,1024.51
2022-08-09T15:24:02.152Z,1024.49
2022-08-09T15:24:44.690Z,1024.48
2022-08-09T15:26:55.903Z,1024.47
2022-08-09T15:29:07.990Z,1024.45
2022-08-09T15:30:58.731Z,1024.46
2022-08-09T15:31:16.140Z,1024.45
2022-08-09T15:33:28.121Z,1024.44
2022-08-09T15:34:34.550Z,1024.44
2022-08-09T15:35:40.779Z,1024.48
2022-08-09T15:36:23.396Z,1024.44
2022-08-09T15:38:32.085Z,1024.42
2022-08-09T15:40:44.386Z,1024.41
2022-08-09T15:42:56.259Z,1024.36
2022-08-09T15:45:08.335Z,1024.35
2022-08-09T15:47:22.749Z,1024.38
2022-08-09T15:48:28.916Z,1024.38
2022-08-09T15:50:32.542Z,1024.34
2022-08-09T15:52:54.919Z,1024.34
2022-08-09T15:54:05.099Z,1024.35
2022-08-09T15:54:49.498Z,1024.35
2022-08-09T15:56:56.740Z,1024.31
2022-08-09T15:59:08.703Z,1024.36
2022-08-09T16:01:20.915Z,1024.36
2022-08-09T16:03:38.802Z,1024.36
2022-08-09T16:05:53.527Z,1024.36
2022-08-09T16:07:58.034Z,1024.32
2022-08-09T16:10:38.375Z,1024.37
2022-08-09T16:12:23.169Z,1024.34
2022-08-09T16:14:35.303Z,1024.35
2022-08-09T16:16:48.256Z,1024.31
2022-08-09T16:19:00.413Z,1024.31
2022-08-09T16:21:12.479Z,1024.32
2022-08-09T16:23:25.400Z,1024.29
2022-08-09T16:25:39.886Z,1024.27
2022-08-09T16:27:52.727Z,1024.31
2022-08-09T16:30:02.490Z,1024.26
2022-08-09T16:32:33.470Z,1024.23
2022-08-09T16:33:15.796Z,1024.23
2022-08-09T16:35:56.692Z,1024.22
2022-08-09T16:36:25.920Z,1024.21
2022-08-09T16:38:37.020Z,1024.24
2022-08-09T16:40:50.139Z,1024.27
2022-08-09T16:43:02.206Z,1024.29
2022-08-09T16:45:14.243Z,1024.23
2022-08-09T16:48:40.587Z,1024.21
2022-08-09T16:48:42.028Z,1024.25
2022-08-09T16:50:31.278Z,1024.17
2022-08-09T16:50:33.945Z,1024.16
2022-08-09T16:52:40.344Z,1024.26
2022-08-09T16:54:52.440Z,1024.27
2022-08-09T16:57:04.532Z,1024.27
2022-08-09T16:59:17.571Z,1024.27
2022-08-09T17:01:33.702Z,1024.29
2022-08-09T17:03:41.741Z,1024.28
2022-08-09T17:06:06.739Z,1024.38
2022-08-09T17:08:45.078Z,1024.35
2022-08-09T17:08:45.475Z,1024.34
2022-08-09T17:09:01.816Z,1024.32
2022-08-09T17:11:05.845Z,1024.34
2022-08-09T17:13:17.951Z,1024.36
2022-08-09T17:15:58.602Z,1024.42
2022-08-09T17:17:51.237Z,1024.45
2022-08-09T17:20:32.552Z,1024.44
2022-08-09T17:22:07.227Z,1024.42
2022-08-09T17:24:28.251Z,1024.43
2022-08-09T17:26:37.944Z,1024.42
2022-08-09T17:28:43.461Z,1024.43
2022-08-09T17:30:55.537Z,1024.47
2022-08-09T17:33:22.472Z,1024.50
2022-08-09T17:35:19.750Z,1024.47
2022-08-09T17:37:31.820Z,1024.48
2022-08-09T17:39:53.337Z,1024.49
2022-08-09T17:41:55.952Z,1024.49
2022-08-09T17:44:41.868Z,1024.49
2022-08-09T17:46:20.131Z,1024.49
2022-08-09T17:47:21.097Z,1024.54
2022-08-09T17:49:32.183Z,1024.62
2022-08-09T17:51:44.302Z,1024.62
2022-08-09T17:53:56.349Z,1024.65
2022-08-09T17:56:08.434Z,1024.66
2022-08-09T17:58:20.504Z,1024.65
2022-08-09T18:00:33.446Z,1024.69
2022-08-09T18:02:03.396Z,1024.74
2022-08-09T18:03:44.672Z,1024.73
2022-08-09T18:05:57.588Z,1024.75
2022-08-09T18:08:11.027Z,1024.75
2022-08-09T18:10:20.894Z,1024.75
2022-08-09T18:12:40.479Z,1024.79
2022-08-09T18:13:40.021Z,1024.82
2022-08-09T18:14:33.930Z,1024.79
2022-08-09T18:16:49.202Z,1024.81
2022-08-09T18:18:57.127Z,1024.83
2022-08-09T18:21:23.069Z,1024.84
2022-08-09T18:22:13.177Z,1024.83
2022-08-09T18:24:21.271Z,1024.89
2022-08-09T18:26:33.324Z,1024.91
2022-08-09T18:30:35.164Z,1024.91
2022-08-09T18:30:41.357Z,1024.86
2022-08-09T18:30:49.568Z,1024.92
2022-08-09T18:32:58.456Z,1024.87
2022-08-09T18:35:10.596Z,1024.88
2022-08-09T18:37:47.339Z,1024.91
2022-08-09T18:39:59.490Z,1024.95
2022-08-09T18:42:51.785Z,1024.98
2022-08-09T18:45:09.603Z,1024.98
2022-08-09T18:46:47.376Z,1024.98
2022-08-09T18:48:22.423Z,1025.05
2022-08-09T18:52:13.813Z,1025.05
2022-08-09T18:57:16.192Z,1025.13
2022-08-09T19:00:07.705Z,1025.17
2022-08-09T19:04:47.855Z,1025.21
2022-08-09T19:35:15.235Z,1025.50
2022-08-09T19:44:14.577Z,1025.56
2022-08-09T19:48:14.921Z,1025.60
2022-08-09T19:50:10.378Z,1025.60
2022-08-09T19:50:51.184Z,1025.57
2022-08-09T19:51:15.876Z,1025.55
2022-08-09T19:53:26.927Z,1025.55
2022-08-09T19:56:05.881Z,1025.59
2022-08-09T19:56:56.741Z,1025.58
2022-08-09T19:59:58.343Z,1025.66
2022-08-09T20:01:52.205Z,1025.67
2022-08-09T20:04:10.891Z,1025.68
2022-08-09T20:04:16.767Z,1025.64
2022-08-09T20:04:47.864Z,1025.68
2022-08-09T20:07:08.729Z,1025.67
2022-08-09T20:09:45.081Z,1025.65
2022-08-09T20:10:22.092Z,1025.67
2022-08-09T20:12:51.833Z,1025.67
2022-08-09T20:15:01.044Z,1025.67
2022-08-09T20:17:48.279Z,1025.69
2022-08-09T20:19:03.734Z,1025.69
2022-08-09T20:19:53.692Z,1025.71
2022-08-09T20:22:14.499Z,1025.67
2022-08-09T20:24:32.069Z,1025.65
2022-08-09T20:26:52.920Z,1025.68
2022-08-09T20:29:18.743Z,1025.67
2022-08-09T20:30:05.958Z,1025.68
2022-08-09T20:32:29.949Z,1025.70
2022-08-09T20:34:31.433Z,1025.72
2022-08-09T20:36:43.523Z,1025.71
2022-08-09T20:40:14.042Z,1025.72
2022-08-09T20:40:16.122Z,1025.73
2022-08-09T20:40:56.593Z,1025.70
2022-08-09T20:43:18.060Z,1025.69
2022-08-09T20:44:09.918Z,1025.69
2022-08-09T20:46:41.859Z,1025.76
2022-08-09T20:47:45.535Z,1025.74
2022-08-09T20:48:21.207Z,1025.76
2022-08-09T20:50:48.273Z,1025.77
2022-08-09T20:52:47.837Z,1025.80
2022-08-09T20:54:59.933Z,1025.81
2022-08-09T20:57:12.010Z,1025.80
2022-08-09T20:59:50.287Z,1025.78
2022-08-09T21:00:31.701Z,1025.80
2022-08-09T21:02:37.627Z,1025.79
2022-08-09T21:05:54.547Z,1025.83
2022-08-09T21:05:59.997Z,1025.82
2022-08-09T21:08:05.789Z,1025.84
2022-08-09T21:10:17.949Z,1025.85
2022-08-09T21:13:30.912Z,1025.83
2022-08-09T21:14:31.576Z,1025.83
2022-08-09T21:16:42.026Z,1025.94
2022-08-09T21:20:17.249Z,1025.92
2022-08-09T21:20:18.006Z,1025.93
2022-08-09T21:22:37.722Z,1025.98
2022-08-09T21:24:28.394Z,1026.02
2022-08-09T21:26:34.164Z,1026.06
2022-08-09T21:28:55.785Z,1026.07
2022-08-09T21:30:58.329Z,1026.06
2022-08-09T21:33:10.405Z,1026.08
2022-08-09T21:34:10.376Z,1026.04
2022-08-09T21:36:23.563Z,1026.03
2022-08-09T21:38:34.562Z,1026.08
2022-08-09T21:40:50.609Z,1026.07
2022-08-09T21:42:59.734Z,1026.08
2022-08-09T21:45:15.850Z,1026.11
2022-08-09T21:47:33.793Z,1026.06
2022-08-09T21:49:46.079Z,1026.07
2022-08-09T21:51:59.148Z,1026.07
2022-08-09T21:54:12.267Z,1026.08
2022-08-09T21:56:43.103Z,1026.02
2022-08-09T21:57:39.311Z,1026.04
2022-08-09T21:58:29.157Z,1026.05
2022-08-09T22:00:36.388Z,1026.10
2022-08-09T22:02:57.888Z,1026.13
2022-08-09T22:05:08.732Z,1026.14
2022-08-09T22:06:02.556Z,1026.14
2022-08-09T22:08:15.268Z,1026.14
2022-08-09T22:10:27.069Z,1026.15
2022-08-09T22:12:39.427Z,1026.14
2022-08-09T22:13:43.263Z,1026.17
2022-08-09T22:15:51.211Z,1026.09
2022-08-09T22:18:03.357Z,1026.12
2022-08-09T22:20:21.675Z,1026.16
2022-08-09T22:21:21.812Z,1026.12
2022-08-09T22:23:35.543Z,1026.13
2022-08-09T22:24:28.380Z,1026.09
2022-08-09T22:26:39.508Z,1026.17
2022-08-09T22:28:54.006Z,1026.18
2022-08-09T22:31:03.653Z,1026.18
2022-08-09T22:33:17.275Z,1026.20
2022-08-09T22:36:00.654Z,1026.15
2022-08-09T22:36:37.367Z,1026.17
2022-08-09T22:38:41.173Z,1026.26
2022-08-09T22:40:57.830Z,1026.26
2022-08-09T22:43:08.690Z,1026.27
2022-08-09T22:48:12.117Z,1026.25
2022-08-09T22:48:14.553Z,1026.26
2022-08-09T22:48:15.099Z,1026.25
2022-08-09T22:48:35.389Z,1026.25
2022-08-09T22:50:32.669Z,1026.22
2022-08-09T22:54:01.059Z,1026.20
2022-08-09T22:56:30.372Z,1026.26
2022-08-09T22:57:04.586Z,1026.28
2022-08-09T22:59:56.305Z,1026.29
2022-08-09T23:00:16.662Z,1026.30
2022-08-09T23:02:30.859Z,1026.25
2022-08-09T23:05:05.943Z,1026.25
2022-08-09T23:07:16.358Z,1026.27
2022-08-09T23:11:21.187Z,1026.33
2022-08-09T23:13:33.238Z,1026.28
2022-08-09T23:16:02.980Z,1026.31
2022-08-09T23:16:46.333Z,1026.30
2022-08-09T23:18:57.381Z,1026.28
2022-08-09T23:21:10.390Z,1026.29
2022-08-09T23:23:21.539Z,1026.28
2022-08-09T23:25:34.617Z,1026.26
2022-08-09T23:28:14.879Z,1026.27
2022-08-09T23:28:47.680Z,1026.28
2022-08-09T23:31:33.518Z,1026.27
2022-08-09T23:33:46.595Z,1026.25
2022-08-09T23:36:58.512Z,1026.26
2022-08-09T23:39:10.609Z,1026.30
2022-08-09T23:42:05.094Z,1026.34
2022-08-09T23:45:38.231Z,1026.30
2022-08-09T23:47:44.115Z,1026.32
2022-08-09T23:49:56.200Z,1026.31
2022-08-09T23:52:08.269Z,1026.30
2022-08-09T23:54:32.314Z,1026.35
2022-08-09T23:57:03.457Z,1026.35
2022-08-09T23:59:16.523Z,1026.39
